createdAt,value
2018-05-29T00:01:31.220Z,22.52
2018-05-29T00:03:57.171Z,22.42
2018-05-29T00:06:23.138Z,22.35
2018-05-29T00:08:49.099Z,22.40
2018-05-29T00:11:16.171Z,22.16
2018-05-29T00:13:42.126Z,22.25
2018-05-29T00:16:08.080Z,22.32
2018-05-29T00:18:34.040Z,22.50
2018-05-29T00:20:59.995Z,22.30
2018-05-29T00:23:26.264Z,22.48
2018-05-29T00:25:52.236Z,22.26
2018-05-29T00:28:18.175Z,22.28
2018-05-29T00:30:44.108Z,22.42
2018-05-29T00:33:10.062Z,22.23
2018-05-29T00:35:36.003Z,22.43
2018-05-29T00:38:01.973Z,22.26
2018-05-29T00:40:27.934Z,22.19
2018-05-29T00:42:53.874Z,22.46
2018-05-29T00:45:19.806Z,22.28
2018-05-29T00:47:45.749Z,22.55
2018-05-29T00:50:11.703Z,22.56
2018-05-29T00:52:37.654Z,22.45
2018-05-29T00:55:03.608Z,22.09
2018-05-29T00:57:29.563Z,22.23
2018-05-29T00:59:55.510Z,22.11
2018-05-29T01:02:21.453Z,22.34
2018-05-29T01:04:47.414Z,22.00
2018-05-29T01:07:13.381Z,22.37
2018-05-29T01:09:39.404Z,22.20
2018-05-29T01:12:05.392Z,22.31
2018-05-29T01:14:31.348Z,22.03
2018-05-29T01:16:57.332Z,22.26
2018-05-29T01:19:23.267Z,22.40
2018-05-29T01:21:49.215Z,22.15
2018-05-29T01:24:15.165Z,22.15
2018-05-29T01:26:41.116Z,22.34
2018-05-29T01:29:07.074Z,22.32
2018-05-29T01:31:33.054Z,22.27
2018-05-29T01:33:59.025Z,22.10
2018-05-29T01:36:24.979Z,22.03
2018-05-29T01:38:50.946Z,21.88
2018-05-29T01:41:16.931Z,21.58
2018-05-29T01:43:42.895Z,21.96
2018-05-29T01:46:08.841Z,21.91
2018-05-29T01:48:35.018Z,21.96
2018-05-29T01:51:00.961Z,21.79
2018-05-29T01:53:26.906Z,22.10
2018-05-29T01:55:52.851Z,22.20
2018-05-29T01:58:18.804Z,22.07
2018-05-29T02:00:44.756Z,22.09
2018-05-29T02:03:10.732Z,21.95
2018-05-29T02:05:36.692Z,21.93
2018-05-29T02:08:02.668Z,21.34
2018-05-29T02:10:29.232Z,21.65
2018-05-29T02:12:55.202Z,21.54
2018-05-29T02:15:21.162Z,21.50
2018-05-29T02:17:47.105Z,21.72
2018-05-29T02:20:13.045Z,21.89
2018-05-29T02:22:38.982Z,21.91
2018-05-29T02:25:04.953Z,21.83
2018-05-29T02:27:30.944Z,21.93
2018-05-29T02:29:56.919Z,21.93
2018-05-29T02:32:22.889Z,22.04
2018-05-29T02:34:48.870Z,22.18
2018-05-29T02:37:14.833Z,21.58
2018-05-29T02:39:40.769Z,21.74
2018-05-29T02:42:06.735Z,21.07
2018-05-29T02:44:32.693Z,20.97
2018-05-29T02:46:58.629Z,21.48
2018-05-29T02:49:24.576Z,21.30
2018-05-29T02:51:50.520Z,21.41
2018-05-29T02:54:16.482Z,21.47
2018-05-29T02:56:42.432Z,21.68
2018-05-29T02:59:08.388Z,21.47
2018-05-29T03:01:34.404Z,21.46
2018-05-29T03:04:00.371Z,21.24
2018-05-29T03:06:26.312Z,21.04
2018-05-29T03:08:52.383Z,21.12
2018-05-29T03:11:18.333Z,21.18
2018-05-29T03:13:44.304Z,21.14
2018-05-29T03:16:10.245Z,21.30
2018-05-29T03:18:36.225Z,20.71
2018-05-29T03:21:02.194Z,21.00
2018-05-29T03:23:28.156Z,20.84
2018-05-29T03:25:54.139Z,20.97
2018-05-29T03:28:20.107Z,20.92
2018-05-29T03:30:46.077Z,21.10
2018-05-29T03:33:12.049Z,21.45
2018-05-29T03:35:38.017Z,21.05
2018-05-29T03:38:03.963Z,21.06
2018-05-29T03:40:29.971Z,21.06
2018-05-29T03:42:55.975Z,21.01
2018-05-29T03:45:21.923Z,20.95
2018-05-29T03:47:47.856Z,20.99
2018-05-29T03:50:13.816Z,21.18
2018-05-29T03:52:39.760Z,21.38
2018-05-29T03:55:05.726Z,21.50
2018-05-29T03:57:31.691Z,21.47
2018-05-29T03:59:57.686Z,21.64
2018-05-29T04:02:23.628Z,21.42
2018-05-29T04:04:49.589Z,21.64
2018-05-29T04:07:15.554Z,21.77
2018-05-29T04:09:41.551Z,21.68
2018-05-29T04:12:07.523Z,22.11
2018-05-29T04:14:34.283Z,22.01
2018-05-29T04:17:00.270Z,21.89
2018-05-29T04:19:26.204Z,22.10
2018-05-29T04:21:52.154Z,22.19
2018-05-29T04:24:18.118Z,22.19
2018-05-29T04:26:44.047Z,22.42
2018-05-29T04:29:10.011Z,22.49
2018-05-29T04:31:37.005Z,23.00
2018-05-29T04:34:02.968Z,22.88
2018-05-29T04:36:29.038Z,22.84
2018-05-29T04:38:55.021Z,23.37
2018-05-29T04:41:20.966Z,23.25
2018-05-29T04:43:46.927Z,23.65
2018-05-29T04:46:12.919Z,23.67
2018-05-29T04:48:38.876Z,23.28
2018-05-29T04:51:04.854Z,23.56
2018-05-29T04:53:30.814Z,23.63
2018-05-29T04:55:56.774Z,23.68
2018-05-29T04:58:22.701Z,23.72
2018-05-29T05:00:48.646Z,23.91
2018-05-29T05:03:14.596Z,23.97
2018-05-29T05:05:40.564Z,23.87
2018-05-29T05:08:06.527Z,23.66
2018-05-29T05:10:32.463Z,23.79
2018-05-29T05:12:58.409Z,23.89
2018-05-29T05:15:24.365Z,23.88
2018-05-29T05:17:53.613Z,23.84
2018-05-29T05:20:19.628Z,23.84
2018-05-29T05:22:45.545Z,24.07
2018-05-29T05:25:11.514Z,24.36
2018-05-29T05:27:37.467Z,24.51
2018-05-29T05:30:03.451Z,24.39
2018-05-29T05:32:29.403Z,24.61
2018-05-29T05:34:55.391Z,24.66
2018-05-29T05:37:21.342Z,24.83
2018-05-29T05:39:47.343Z,24.97
2018-05-29T05:42:13.302Z,24.72
2018-05-29T05:44:39.251Z,24.94
2018-05-29T05:47:05.237Z,25.00
2018-05-29T05:49:31.202Z,25.31
2018-05-29T05:51:57.163Z,25.39
2018-05-29T05:54:23.104Z,25.53
2018-05-29T05:56:49.049Z,25.82
2018-05-29T05:59:15.020Z,25.99
2018-05-29T06:01:40.983Z,26.09
2018-05-29T06:04:06.944Z,26.31
2018-05-29T06:06:33.144Z,26.45
2018-05-29T06:08:59.158Z,26.57
2018-05-29T06:11:25.119Z,26.61
2018-05-29T06:13:51.087Z,26.51
2018-05-29T06:16:17.036Z,26.59
2018-05-29T06:18:43.072Z,26.89
2018-05-29T06:21:09.108Z,26.70
2018-05-29T06:23:35.088Z,26.80
2018-05-29T06:26:01.137Z,26.96
2018-05-29T06:28:27.125Z,27.38
2018-05-29T06:30:53.108Z,27.43
2018-05-29T06:33:19.064Z,27.61
2018-05-29T06:35:45.029Z,27.72
2018-05-29T06:38:11.068Z,27.93
2018-05-29T06:40:36.972Z,28.04
2018-05-29T06:43:02.919Z,28.23
2018-05-29T06:45:28.893Z,28.63
2018-05-29T06:47:54.862Z,28.63
2018-05-29T06:50:20.841Z,28.58
2018-05-29T06:52:46.807Z,28.83
2018-05-29T06:55:12.794Z,29.16
2018-05-29T06:57:38.713Z,29.19
2018-05-29T07:00:04.710Z,29.31
2018-05-29T07:02:30.796Z,29.70
2018-05-29T07:04:56.777Z,29.68
2018-05-29T07:07:22.717Z,29.75
2018-05-29T07:09:48.657Z,30.07
2018-05-29T07:12:14.612Z,29.96
2018-05-29T07:14:40.585Z,30.00
2018-05-29T07:17:06.516Z,30.20
2018-05-29T07:19:32.456Z,30.17
2018-05-29T07:21:58.391Z,30.35
2018-05-29T07:24:24.417Z,30.18
2018-05-29T07:26:50.380Z,30.33
2018-05-29T07:29:16.363Z,30.37
2018-05-29T07:31:42.334Z,30.37
2018-05-29T07:34:08.285Z,30.48
2018-05-29T07:36:34.217Z,30.44
2018-05-29T07:39:03.074Z,30.49
2018-05-29T07:41:29.229Z,30.36
2018-05-29T07:43:55.243Z,30.24
2018-05-29T07:46:21.220Z,30.57
2018-05-29T07:48:47.174Z,30.60
2018-05-29T07:51:13.160Z,30.64
2018-05-29T07:53:39.130Z,31.10
2018-05-29T07:56:05.091Z,31.01
2018-05-29T07:58:31.042Z,31.00
2018-05-29T08:00:57.033Z,30.87
2018-05-29T08:03:22.962Z,31.08
2018-05-29T08:05:48.942Z,31.08
2018-05-29T08:08:14.880Z,30.68
2018-05-29T08:10:40.940Z,30.58
2018-05-29T08:13:06.856Z,30.33
2018-05-29T08:15:32.801Z,30.34
2018-05-29T08:17:58.746Z,29.90
2018-05-29T08:20:24.716Z,29.58
2018-05-29T08:22:50.674Z,29.65
2018-05-29T08:25:16.631Z,29.46
2018-05-29T08:27:42.583Z,29.22
2018-05-29T08:30:08.556Z,29.15
2018-05-29T08:32:34.518Z,28.95
2018-05-29T08:35:00.470Z,28.84
2018-05-29T08:37:26.421Z,28.79
2018-05-29T08:39:52.350Z,28.67
2018-05-29T08:42:18.289Z,28.59
2018-05-29T08:44:44.240Z,28.50
2018-05-29T08:47:10.202Z,28.42
2018-05-29T08:49:36.143Z,28.30
2018-05-29T08:52:02.085Z,28.22
2018-05-29T08:54:28.111Z,28.37
2018-05-29T08:56:54.060Z,28.28
2018-05-29T08:59:19.998Z,28.29
2018-05-29T09:01:45.940Z,28.25
2018-05-29T09:04:11.916Z,28.32
2018-05-29T09:06:37.880Z,28.27
2018-05-29T09:09:03.839Z,28.22
2018-05-29T09:11:29.834Z,28.32
2018-05-29T09:13:55.787Z,28.25
2018-05-29T09:16:21.901Z,28.20
2018-05-29T09:18:47.866Z,28.30
2018-05-29T09:21:13.806Z,28.31
2018-05-29T09:23:39.763Z,28.27
2018-05-29T09:26:05.747Z,28.23
2018-05-29T09:28:31.702Z,28.22
2018-05-29T09:30:57.684Z,28.20
2018-05-29T09:33:23.650Z,28.23
2018-05-29T09:35:49.590Z,28.25
2018-05-29T09:38:15.550Z,28.22
2018-05-29T09:40:41.505Z,28.19
2018-05-29T09:43:07.449Z,28.23
2018-05-29T09:45:33.412Z,28.21
2018-05-29T09:47:59.382Z,28.17
2018-05-29T09:50:25.370Z,28.19
2018-05-29T09:52:51.327Z,28.17
2018-05-29T09:55:17.311Z,28.20
2018-05-29T09:57:43.267Z,28.15
2018-05-29T10:00:09.220Z,28.21
2018-05-29T10:02:35.187Z,28.18
2018-05-29T10:05:01.167Z,28.30
2018-05-29T10:07:27.141Z,28.28
2018-05-29T10:09:53.110Z,28.24
2018-05-29T10:12:19.112Z,28.25
2018-05-29T10:14:45.084Z,28.33
2018-05-29T10:17:11.087Z,28.36
2018-05-29T10:19:37.063Z,28.49
2018-05-29T10:22:03.031Z,28.46
2018-05-29T10:24:28.995Z,28.15
2018-05-29T10:26:54.932Z,28.35
2018-05-29T10:29:20.889Z,28.37
2018-05-29T10:31:46.843Z,28.51
2018-05-29T10:34:12.769Z,28.49
2018-05-29T10:36:38.708Z,28.38
2018-05-29T10:39:04.657Z,28.70
2018-05-29T10:41:30.621Z,28.69
2018-05-29T10:43:56.593Z,28.67
2018-05-29T10:46:22.541Z,28.78
2018-05-29T10:48:48.515Z,28.54
2018-05-29T10:51:14.482Z,28.61
2018-05-29T10:53:40.435Z,28.80
2018-05-29T10:56:06.374Z,28.49
2018-05-29T10:58:32.321Z,28.75
2018-05-29T11:00:58.282Z,28.66
2018-05-29T11:03:24.248Z,28.81
2018-05-29T11:05:50.206Z,28.77
2018-05-29T11:08:16.188Z,28.81
2018-05-29T11:10:42.252Z,28.42
2018-05-29T11:13:08.217Z,28.71
2018-05-29T11:15:34.191Z,28.94
2018-05-29T11:18:00.163Z,28.75
2018-05-29T11:20:26.117Z,28.72
2018-05-29T11:22:52.079Z,28.71
2018-05-29T11:25:18.050Z,28.88
2018-05-29T11:27:43.988Z,28.82
2018-05-29T11:30:09.949Z,28.90
2018-05-29T11:32:35.921Z,29.06
2018-05-29T11:35:01.892Z,29.11
2018-05-29T11:37:27.848Z,28.90
2018-05-29T11:39:53.850Z,28.99
2018-05-29T11:42:19.892Z,29.13
2018-05-29T11:44:45.875Z,29.09
2018-05-29T11:47:12.701Z,28.94
2018-05-29T11:49:38.670Z,28.83
2018-05-29T11:52:04.632Z,28.94
2018-05-29T11:54:30.586Z,28.80
2018-05-29T11:56:56.543Z,28.82
2018-05-29T11:59:22.489Z,28.91
2018-05-29T12:01:48.449Z,28.80
2018-05-29T12:04:14.423Z,28.93
2018-05-29T12:06:40.399Z,28.82
2018-05-29T12:09:06.362Z,28.66
2018-05-29T12:11:32.293Z,28.75
2018-05-29T12:13:58.253Z,28.88
2018-05-29T12:16:24.247Z,28.85
2018-05-29T12:18:50.220Z,28.85
2018-05-29T12:21:16.344Z,28.74
2018-05-29T12:23:42.362Z,28.70
2018-05-29T12:26:08.353Z,28.79
2018-05-29T12:28:34.585Z,28.85
2018-05-29T12:31:00.603Z,28.92
2018-05-29T12:33:26.594Z,28.99
2018-05-29T12:35:52.577Z,28.91
2018-05-29T12:38:18.615Z,28.82
2018-05-29T12:40:44.602Z,28.71
2018-05-29T12:43:10.655Z,28.90
2018-05-29T12:45:36.631Z,29.07
2018-05-29T12:48:02.575Z,28.81
2018-05-29T12:50:28.562Z,28.79
2018-05-29T12:52:54.548Z,28.87
2018-05-29T12:55:20.512Z,28.93
2018-05-29T12:57:46.525Z,28.94
2018-05-29T13:00:12.678Z,28.91
2018-05-29T13:05:15.655Z,28.80
2018-05-29T13:07:42.502Z,28.91
2018-05-29T13:10:08.552Z,28.90
2018-05-29T13:12:34.607Z,28.91
2018-05-29T13:15:00.683Z,28.78
2018-05-29T13:17:26.709Z,28.78
2018-05-29T13:19:52.896Z,28.95
2018-05-29T13:22:18.912Z,29.05
2018-05-29T13:24:47.012Z,29.09
2018-05-29T13:27:13.070Z,29.00
2018-05-29T13:29:39.099Z,28.83
2018-05-29T13:32:05.163Z,28.60
2018-05-29T13:34:31.200Z,28.80
2018-05-29T13:36:57.226Z,28.75
2018-05-29T13:39:23.233Z,28.96
2018-05-29T13:41:49.237Z,28.78
2018-05-29T13:44:15.233Z,28.85
2018-05-29T13:46:41.223Z,28.79
2018-05-29T13:49:07.209Z,28.82
2018-05-29T13:51:33.198Z,28.96
2018-05-29T13:53:59.168Z,28.98
2018-05-29T13:56:25.171Z,29.03
2018-05-29T13:58:51.099Z,29.18
2018-05-29T14:01:17.125Z,29.22
2018-05-29T14:03:43.104Z,29.07
2018-05-29T14:06:09.063Z,28.83
2018-05-29T14:08:35.250Z,28.89
2018-05-29T14:11:01.272Z,28.88
2018-05-29T14:15:58.722Z,28.74
2018-05-29T14:18:24.779Z,29.10
2018-05-29T14:20:50.841Z,29.03
2018-05-29T14:23:16.801Z,28.91
2018-05-29T14:25:43.872Z,28.83
2018-05-29T14:28:11.988Z,28.73
2018-05-29T14:30:38.044Z,28.77
2018-05-29T14:33:04.082Z,28.65
2018-05-29T14:35:30.081Z,28.79
2018-05-29T14:37:58.641Z,28.82
2018-05-29T14:40:24.718Z,28.68
2018-05-29T14:42:50.817Z,28.73
2018-05-29T14:45:16.834Z,28.79
2018-05-29T14:47:42.941Z,28.71
2018-05-29T14:50:08.914Z,28.81
2018-05-29T14:52:35.074Z,28.57
2018-05-29T14:55:01.041Z,28.65
2018-05-29T14:57:27.059Z,28.67
2018-05-29T14:59:55.582Z,28.20
2018-05-29T15:02:21.617Z,28.58
2018-05-29T15:04:47.628Z,28.57
2018-05-29T15:07:13.626Z,28.48
2018-05-29T15:09:44.797Z,28.53
2018-05-29T15:12:10.794Z,28.69
2018-05-29T15:14:37.898Z,28.69
2018-05-29T15:17:03.861Z,28.70
2018-05-29T15:19:29.915Z,28.74
2018-05-29T15:21:55.930Z,28.70
2018-05-29T15:24:21.935Z,28.79
2018-05-29T15:26:47.988Z,28.71
2018-05-29T15:29:14.016Z,28.60
2018-05-29T15:31:40.046Z,28.61
2018-05-29T15:34:07.150Z,28.72
2018-05-29T15:36:33.210Z,28.76
2018-05-29T15:38:59.225Z,28.71
2018-05-29T15:41:25.250Z,28.84
2018-05-29T15:43:51.271Z,28.84
2018-05-29T15:46:17.301Z,28.91
2018-05-29T15:48:43.331Z,28.83
2018-05-29T15:51:10.411Z,28.98
2018-05-29T15:53:36.395Z,28.97
2018-05-29T15:56:02.422Z,29.16
2018-05-29T15:58:28.445Z,29.11
2018-05-29T16:00:54.495Z,28.97
2018-05-29T16:03:20.507Z,29.00
2018-05-29T16:05:46.589Z,29.00
2018-05-29T16:08:12.662Z,28.93
2018-05-29T16:10:38.664Z,29.08
2018-05-29T16:13:04.674Z,28.97
2018-05-29T16:18:06.637Z,29.03
2018-05-29T16:20:32.766Z,28.87
2018-05-29T16:22:58.794Z,29.05
2018-05-29T16:25:25.880Z,29.04
2018-05-29T16:27:52.895Z,29.09
2018-05-29T16:30:18.916Z,28.95
2018-05-29T16:32:44.991Z,28.88
2018-05-29T16:35:11.059Z,29.00
2018-05-29T16:37:37.124Z,28.88
2018-05-29T16:40:03.124Z,29.00
2018-05-29T16:42:32.263Z,28.96
2018-05-29T16:45:00.330Z,28.94
2018-05-29T16:47:26.352Z,28.90
2018-05-29T16:49:52.382Z,28.90
2018-05-29T16:52:19.431Z,28.85
2018-05-29T16:54:45.407Z,28.82
2018-05-29T16:57:11.431Z,28.78
2018-05-29T16:59:37.480Z,28.73
2018-05-29T17:02:03.514Z,28.64
2018-05-29T17:04:29.524Z,28.67
2018-05-29T17:06:55.564Z,28.73
2018-05-29T17:09:21.588Z,28.67
2018-05-29T17:11:47.645Z,28.73
2018-05-29T17:14:13.637Z,28.52
2018-05-29T17:16:39.624Z,28.54
2018-05-29T17:19:07.608Z,28.56
2018-05-29T17:21:34.729Z,28.44
2018-05-29T17:24:02.754Z,28.46
2018-05-29T17:26:28.903Z,28.47
2018-05-29T17:28:54.898Z,28.40
2018-05-29T17:31:20.945Z,28.36
2018-05-29T17:33:46.909Z,28.34
2018-05-29T17:36:15.190Z,28.33
2018-05-29T17:38:41.266Z,28.34
2018-05-29T17:41:07.346Z,28.31
2018-05-29T17:43:33.400Z,28.27
2018-05-29T17:45:59.395Z,28.31
2018-05-29T17:48:25.581Z,28.29
2018-05-29T17:50:51.780Z,28.30
2018-05-29T17:53:18.202Z,28.25
2018-05-29T17:55:44.725Z,28.33
2018-05-29T17:58:11.287Z,28.26
2018-05-29T18:00:37.703Z,28.24
2018-05-29T18:03:04.763Z,28.15
2018-05-29T18:05:30.797Z,28.14
2018-05-29T18:07:56.817Z,28.17
2018-05-29T18:10:22.830Z,28.12
2018-05-29T18:12:48.830Z,28.10
2018-05-29T18:15:14.866Z,28.10
2018-05-29T18:17:40.905Z,28.13
2018-05-29T18:20:06.872Z,28.05
2018-05-29T18:22:33.007Z,28.05
2018-05-29T18:24:59.111Z,28.04
2018-05-29T18:27:25.148Z,28.04
2018-05-29T18:29:51.310Z,28.09
2018-05-29T18:32:17.515Z,27.99
2018-05-29T18:34:43.930Z,28.00
2018-05-29T18:37:10.362Z,27.95
2018-05-29T18:39:36.497Z,27.92
2018-05-29T18:42:02.593Z,27.90
2018-05-29T18:44:28.802Z,27.81
2018-05-29T18:46:54.970Z,27.82
2018-05-29T18:49:21.065Z,27.77
2018-05-29T18:51:47.197Z,27.74
2018-05-29T18:54:13.189Z,27.71
2018-05-29T18:56:39.272Z,27.67
2018-05-29T18:59:05.256Z,27.68
2018-05-29T19:01:31.289Z,27.56
2018-05-29T19:03:57.257Z,27.56
2018-05-29T19:06:23.292Z,27.49
2018-05-29T19:08:49.345Z,27.47
2018-05-29T19:11:15.370Z,27.44
2018-05-29T19:13:41.372Z,27.38
2018-05-29T19:16:07.393Z,27.41
2018-05-29T19:18:33.469Z,27.44
2018-05-29T19:20:59.491Z,27.39
2018-05-29T19:23:25.536Z,27.42
2018-05-29T19:25:51.508Z,27.34
2018-05-29T19:28:18.537Z,27.34
2018-05-29T19:30:44.475Z,27.29
2018-05-29T19:33:10.634Z,27.22
2018-05-29T19:35:36.585Z,27.16
2018-05-29T19:38:02.556Z,27.25
2018-05-29T19:40:28.539Z,27.15
2018-05-29T19:42:54.620Z,27.09
2018-05-29T19:45:20.761Z,27.16
2018-05-29T19:47:46.734Z,27.12
2018-05-29T19:50:12.693Z,27.09
2018-05-29T19:52:38.685Z,27.06
2018-05-29T19:55:04.738Z,26.94
2018-05-29T19:57:30.714Z,26.91
2018-05-29T19:59:56.725Z,27.01
2018-05-29T20:02:22.703Z,26.84
2018-05-29T20:04:48.816Z,26.65
2018-05-29T20:07:14.832Z,26.62
2018-05-29T20:09:40.898Z,26.53
2018-05-29T20:12:09.037Z,26.59
2018-05-29T20:14:35.045Z,26.43
2018-05-29T20:17:01.069Z,26.33
2018-05-29T20:19:27.011Z,26.46
2018-05-29T20:21:52.990Z,26.43
2018-05-29T20:24:19.056Z,26.46
2018-05-29T20:26:44.997Z,26.24
2018-05-29T20:29:10.956Z,26.22
2018-05-29T20:31:36.940Z,26.24
2018-05-29T20:34:02.977Z,26.27
2018-05-29T20:36:28.951Z,26.21
2018-05-29T20:38:54.949Z,26.12
2018-05-29T20:41:20.914Z,25.98
2018-05-29T20:43:46.907Z,26.34
2018-05-29T20:46:12.825Z,26.20
2018-05-29T20:48:38.795Z,26.09
2018-05-29T20:51:04.740Z,25.97
2018-05-29T20:53:30.734Z,26.04
2018-05-29T20:55:56.762Z,25.92
2018-05-29T20:58:22.760Z,25.97
2018-05-29T21:00:48.719Z,25.97
2018-05-29T21:03:14.685Z,25.96
2018-05-29T21:05:40.667Z,25.78
2018-05-29T21:08:06.698Z,25.76
2018-05-29T21:10:32.688Z,25.67
2018-05-29T21:12:58.659Z,25.65
2018-05-29T21:15:24.677Z,25.55
2018-05-29T21:17:50.639Z,25.74
2018-05-29T21:20:16.618Z,25.70
2018-05-29T21:22:42.551Z,25.74
2018-05-29T21:25:08.491Z,25.53
2018-05-29T21:27:34.489Z,25.48
2018-05-29T21:30:00.455Z,25.56
2018-05-29T21:32:26.412Z,25.59
2018-05-29T21:34:52.376Z,25.45
2018-05-29T21:37:18.336Z,25.32
2018-05-29T21:39:44.302Z,25.45
2018-05-29T21:42:10.230Z,25.47
2018-05-29T21:44:36.199Z,25.36
2018-05-29T21:47:02.230Z,25.31
2018-05-29T21:49:28.189Z,25.19
2018-05-29T21:51:54.175Z,25.15
2018-05-29T21:54:20.170Z,25.05
2018-05-29T21:56:46.103Z,25.14
2018-05-29T21:59:12.084Z,25.01
2018-05-29T22:01:38.016Z,24.91
2018-05-29T22:04:03.985Z,24.90
2018-05-29T22:06:29.940Z,24.69
2018-05-29T22:08:55.909Z,24.76
2018-05-29T22:11:21.862Z,24.73
2018-05-29T22:13:47.841Z,24.89
2018-05-29T22:16:13.780Z,24.60
2018-05-29T22:18:39.740Z,24.71
2018-05-29T22:21:05.678Z,24.57
2018-05-29T22:23:31.606Z,24.56
2018-05-29T22:25:57.579Z,24.69
2018-05-29T22:28:23.518Z,24.42
2018-05-29T22:30:49.481Z,24.37
2018-05-29T22:33:15.539Z,24.19
2018-05-29T22:35:41.554Z,24.26
2018-05-29T22:38:07.497Z,24.32
2018-05-29T22:40:33.454Z,24.39
2018-05-29T22:42:59.386Z,24.14
2018-05-29T22:45:25.345Z,24.24
2018-05-29T22:47:51.329Z,24.27
2018-05-29T22:50:17.297Z,24.41
2018-05-29T22:52:43.229Z,24.39
2018-05-29T22:55:09.203Z,24.54
2018-05-29T22:57:35.136Z,24.28
2018-05-29T23:00:01.096Z,24.31
2018-05-29T23:02:27.064Z,24.50
2018-05-29T23:04:52.993Z,24.42
2018-05-29T23:07:18.945Z,24.27
2018-05-29T23:09:45.033Z,24.18
2018-05-29T23:12:10.992Z,24.34
2018-05-29T23:14:36.928Z,24.40
2018-05-29T23:17:02.896Z,24.35
2018-05-29T23:19:28.868Z,24.15
2018-05-29T23:21:54.845Z,24.12
2018-05-29T23:24:20.863Z,24.11
2018-05-29T23:26:46.811Z,23.92
2018-05-29T23:29:12.764Z,23.98
2018-05-29T23:31:38.731Z,23.97
2018-05-29T23:34:04.687Z,23.97
2018-05-29T23:36:30.640Z,23.82
2018-05-29T23:38:56.584Z,23.76
2018-05-29T23:41:22.526Z,23.80
2018-05-29T23:43:48.463Z,23.87
2018-05-29T23:46:14.406Z,23.79
2018-05-29T23:48:40.355Z,23.59
2018-05-29T23:51:06.289Z,23.89
2018-05-29T23:53:32.231Z,23.68
2018-05-29T23:55:58.243Z,23.78
2018-05-29T23:58:24.156Z,23.82
